Time;durP1;ratioP1;P1;durP2;ratioP2;P2;SDS_P1;SDS_P2;PMS_P1;PMS_P2;Temp;Humidity;BMP_temperature;BMP_pressure;BME280_temperature;BME280_humidity;BME280_pressure;Samples;Min_cycle;Max_cycle;Signal;HPM_P1;HPM_P2
2023/05/17 00:00:31;;;;;;;;;;;;;;;;;;5013972;28;19972;-68
2023/05/17 00:02:58;;;;;;;;;;;;;;;;;;5014947;28;19929;-68
2023/05/17 00:05:25;;;;;;;;;;;;;;;;;;4999522;28;19930;-69
2023/05/17 00:07:52;;;;;;;;;;;;;;;;;;4996468;28;19926;-68
2023/05/17 00:10:19;;;;;;;;;;;;;;;;;;5014796;28;19965;-68
2023/05/17 00:12:46;;;;;;;;;;;;;;;;;;5002665;28;19926;-68
2023/05/17 00:15:13;;;;;;;;;;;;;;;;;;5001490;28;19995;-69
2023/05/17 00:17:40;;;;;;;;;;;;;;;;;;5013797;28;19980;-68
2023/05/17 00:20:07;;;;;;;;;;;;;;;;;;5014684;28;20384;-69
2023/05/17 00:22:34;;;;;;;;;;;;;;;;;;5013958;28;19925;-69
2023/05/17 00:25:01;;;;;;;;;;;;;;;;;;5015010;28;20423;-69
2023/05/17 00:27:28;;;;;;;;;;;;;;;;;;5014289;28;19972;-69
2023/05/17 00:29:55;;;;;;;;;;;;;;;;;;5012617;28;19969;-69
2023/05/17 00:32:22;;;;;;;;;;;;;;;;;;5013354;28;20296;-69
2023/05/17 00:34:49;;;;;;;;;;;;;;;;;;4999852;28;20044;-68
2023/05/17 00:37:16;;;;;;;;;;;;;;;;;;4994343;28;19972;-67
2023/05/17 00:39:43;;;;;;;;;;;;;;;;;;5005097;28;20033;-67
2023/05/17 00:42:10;;;;;;;;;;;;;;;;;;5014292;28;19969;-67
2023/05/17 00:44:37;;;;;;;;;;;;;;;;;;5013809;28;20399;-67
2023/05/17 00:47:04;;;;;;;;;;;;;;;;;;5012195;28;19925;-67
2023/05/17 00:49:31;;;;;;;;;;;;;;;;;;5013841;28;19964;-67
2023/05/17 00:51:58;;;;;;;;;;;;;;;;;;5013346;28;20357;-67
2023/05/17 00:54:25;;;;;;;;;;;;;;;;;;5013001;28;20016;-67
2023/05/17 00:56:52;;;;;;;;;;;;;;;;;;5008840;28;19934;-67
2023/05/17 00:59:19;;;;;;;;;;;;;;;;;;5012902;28;20577;-67
2023/05/17 01:01:46;;;;;;;;;;;;;;;;;;5013843;28;19971;-67
2023/05/17 01:04:13;;;;;;;;;;;;;;;;;;5012644;28;19965;-67
2023/05/17 01:06:40;;;;;;;;;;;;;;;;;;5010532;28;19925;-67
2023/05/17 01:09:07;;;;;;;;;;;;;;;;;;5013785;28;19934;-67
2023/05/17 01:11:34;;;;;;;;;;;;;;;;;;5013189;28;19929;-68
2023/05/17 01:14:01;;;;;;;;;;;;;;;;;;5011043;28;19926;-67
2023/05/17 01:16:28;;;;;;;;;;;;;;;;;;5014169;28;19972;-67
2023/05/17 01:18:55;;;;;;;;;;;;;;;;;;5015363;28;19969;-68
2023/05/17 01:21:22;;;;;;;;;;;;;;;;;;5000354;28;19926;-67
2023/05/17 01:23:49;;;;;;;;;;;;;;;;;;4995219;28;19926;-67
2023/05/17 01:26:16;;;;;;;;;;;;;;;;;;4993984;28;19988;-67
2023/05/17 01:28:43;;;;;;;;;;;;;;;;;;4999746;28;20412;-67
2023/05/17 01:31:10;;;;;;;;;;;;;;;;;;5012332;28;19929;-67
2023/05/17 01:33:37;;;;;;;;;;;;;;;;;;5008424;28;19999;-67
2023/05/17 01:36:04;;;;;;;;;;;;;;;;;;4993895;28;20438;-67
2023/05/17 01:38:31;;;;;;;;;;;;;;;;;;5007166;28;19933;-67
2023/05/17 01:40:58;;;;;;;;;;;;;;;;;;5012563;28;19961;-67
2023/05/17 01:43:25;;;;;;;;;;;;;;;;;;5013060;28;19929;-67
2023/05/17 01:45:52;;;;;;;;;;;;;;;;;;5011085;28;19929;-66
2023/05/17 01:48:19;;;;;;;;;;;;;;;;;;5010854;28;20380;-67
2023/05/17 01:50:46;;;;;;;;;;;;;;;;;;5013063;28;19972;-67
2023/05/17 01:53:13;;;;;;;;;;;;;;;;;;5013292;28;19925;-67
2023/05/17 01:55:40;;;;;;;;;;;;;;;;;;5008886;28;20324;-67
2023/05/17 01:58:07;;;;;;;;;;;;;;;;;;5010338;28;19980;-67
2023/05/17 02:00:34;;;;;;;;;;;;;;;;;;5010915;28;19977;-68
2023/05/17 02:03:01;;;;;;;;;;;;;;;;;;5012180;28;19926;-67
2023/05/17 02:05:28;;;;;;;;;;;;;;;;;;5009041;28;19925;-67
2023/05/17 02:07:55;;;;;;;;;;;;;;;;;;5011728;28;20446;-67
2023/05/17 02:10:22;;;;;;;;;;;;;;;;;;5010910;28;19925;-67
2023/05/17 02:12:49;;;;;;;;;;;;;;;;;;5012784;28;20017;-67
2023/05/17 02:15:16;;;;;;;;;;;;;;;;;;5010270;28;19992;-68
2023/05/17 02:17:43;;;;;;;;;;;;;;;;;;4998970;28;20450;-68
2023/05/17 02:20:10;;;;;;;;;;;;;;;;;;5011275;28;19972;-68
2023/05/17 02:22:37;;;;;;;;;;;;;;;;;;5012108;28;19926;-68
2023/05/17 02:25:04;;;;;;;;;;;;;;;;;;4993027;28;19926;-68
2023/05/17 02:27:31;;;;;;;;;;;;;;;;;;5004454;28;19926;-67
2023/05/17 02:29:58;;;;;;;;;;;;;;;;;;5011585;28;19979;-68
2023/05/17 02:32:25;;;;;;;;;;;;;;;;;;5010154;28;20356;-67
2023/05/17 02:34:52;;;;;;;;;;;;;;;;;;5010295;28;19929;-68
2023/05/17 02:37:19;;;;;;;;;;;;;;;;;;5008636;28;19972;-68
2023/05/17 02:39:47;;;;;;;;;;;;;;;;;;5011555;28;20399;-68
2023/05/17 02:42:14;;;;;;;;;;;;;;;;;;5005286;28;19925;-68
2023/05/17 02:44:40;;;;;;;;;;;;;;;;;;5012083;28;19976;-67
2023/05/17 02:47:07;;;;;;;;;;;;;;;;;;5010514;28;20273;-67
2023/05/17 02:49:35;;;;;;;;;;;;;;;;;;5010905;28;19926;-67
2023/05/17 02:52:02;;;;;;;;;;;;;;;;;;5012568;28;19925;-67
2023/05/17 02:54:29;;;;;;;;;;;;;;;;;;5015686;28;19925;-67
2023/05/17 02:56:56;;;;;;;;;;;;;;;;;;5012305;28;20024;-67
2023/05/17 02:59:23;;;;;;;;;;;;;;;;;;5015960;28;19969;-67
2023/05/17 03:01:50;;;;;;;;;;;;;;;;;;5015081;28;20002;-68
2023/05/17 03:04:18;;;;;;;;;;;;;;;;;;5016217;28;19972;-67
2023/05/17 03:06:45;;;;;;;;;;;;;;;;;;5008393;28;19926;-67
2023/05/17 03:09:12;;;;;;;;;;;;;;;;;;4995997;28;19969;-67
2023/05/17 03:11:40;;;;;;;;;;;;;;;;;;4997561;28;19926;-67
2023/05/17 03:14:06;;;;;;;;;;;;;;;;;;5016630;28;19925;-67
2023/05/17 03:16:33;;;;;;;;;;;;;;;;;;5013853;28;19925;-70
2023/05/17 03:19:00;;;;;;;;;;;;;;;;;;5016258;28;19925;-69
2023/05/17 03:21:27;;;;;;;;;;;;;;;;;;5016242;28;19988;-66
2023/05/17 03:23:54;;;;;;;;;;;;;;;;;;5014912;28;20263;-66
2023/05/17 03:26:22;;;;;;;;;;;;;;;;;;5005643;28;19979;-66
2023/05/17 03:28:50;;;;;;;;;;;;;;;;;;5015237;28;20020;-66
2023/05/17 03:31:17;;;;;;;;;;;;;;;;;;5013951;28;19925;-67
2023/05/17 03:33:45;;;;;;;;;;;;;;;;;;5015503;28;20323;-67
2023/05/17 03:36:12;;;;;;;;;;;;;;;;;;5015005;28;19925;-67
2023/05/17 03:38:39;;;;;;;;;;;;;;;;;;5015275;28;19925;-67
2023/05/17 03:41:06;;;;;;;;;;;;;;;;;;5010068;28;19993;-67
2023/05/17 03:43:33;;;;;;;;;;;;;;;;;;5000524;28;19969;-67
2023/05/17 03:46:00;;;;;;;;;;;;;;;;;;5013598;28;19929;-67
2023/05/17 03:48:27;;;;;;;;;;;;;;;;;;5014341;28;19926;-67
2023/05/17 03:50:54;;;;;;;;;;;;;;;;;;5014947;28;19960;-67
2023/05/17 03:53:21;;;;;;;;;;;;;;;;;;5014553;28;20032;-67
2023/05/17 03:55:48;;;;;;;;;;;;;;;;;;5013692;28;19949;-67
2023/05/17 03:58:15;;;;;;;;;;;;;;;;;;5014304;28;19976;-68
2023/05/17 04:00:42;;;;;;;;;;;;;;;;;;5013693;28;19925;-68
2023/05/17 04:03:09;;;;;;;;;;;;;;;;;;5014823;28;19981;-67
2023/05/17 04:05:36;;;;;;;;;;;;;;;;;;5012892;28;19929;-67
2023/05/17 04:08:03;;;;;;;;;;;;;;;;;;5015269;28;19952;-68
2023/05/17 04:10:30;;;;;;;;;;;;;;;;;;5014954;28;19965;-68
2023/05/17 04:12:57;;;;;;;;;;;;;;;;;;4995548;28;19968;-67
2023/05/17 04:15:24;;;;;;;;;;;;;;;;;;4999422;28;20369;-68
2023/05/17 04:17:51;;;;;;;;;;;;;;;;;;5013345;28;20003;-68
2023/05/17 04:20:18;;;;;;;;;;;;;;;;;;5014280;28;19925;-68
2023/05/17 04:22:45;;;;;;;;;;;;;;;;;;5013966;28;19926;-68
2023/05/17 04:25:12;;;;;;;;;;;;;;;;;;5013599;28;19961;-68
2023/05/17 04:27:39;;;;;;;;;;;;;;;;;;5013634;28;19948;-68
2023/05/17 04:30:06;;;;;;;;;;;;;;;;;;4995403;28;20416;-68
2023/05/17 04:32:34;;;;;;;;;;;;;;;;;;5011868;28;19965;-68
2023/05/17 04:35:02;;;;;;;;;;;;;;;;;;5008489;28;19949;-68
2023/05/17 04:37:29;;;;;;;;;;;;;;;;;;5011262;28;19930;-68
2023/05/17 04:39:57;;;;;;;;;;;;;;;;;;5009288;28;19972;-68
2023/05/17 04:42:25;;;;;;;;;;;;;;;;;;5000367;28;20333;-69
2023/05/17 04:44:52;;;;;;;;;;;;;;;;;;5013507;28;19933;-68
2023/05/17 04:47:19;;;;;;;;;;;;;;;;;;5009577;28;20399;-68
2023/05/17 04:49:46;;;;;;;;;;;;;;;;;;5012448;28;20004;-68
2023/05/17 04:52:13;;;;;;;;;;;;;;;;;;5014442;28;19925;-68
2023/05/17 04:54:40;;;;;;;;;;;;;;;;;;5004225;28;19925;-68
2023/05/17 04:57:07;;;;;;;;;;;;;;;;;;5006883;28;19981;-67
2023/05/17 04:59:34;;;;;;;;;;;;;;;;;;5000157;28;19925;-68
2023/05/17 05:02:01;;;;;;;;;;;;;;;;;;5002052;28;19929;-68
2023/05/17 05:04:28;;;;;;;;;;;;;;;;;;5011331;28;20344;-68
2023/05/17 05:06:55;;;;;;;;;;;;;;;;;;5001665;28;19972;-68
2023/05/17 05:09:22;;;;;;;;;;;;;;;;;;5012575;28;19926;-68
2023/05/17 05:11:49;;;;;;;;;;;;;;;;;;5009566;28;19925;-68
2023/05/17 05:14:16;;;;;;;;;;;;;;;;;;5009526;28;20415;-69
2023/05/17 05:16:43;;;;;;;;;;;;;;;;;;5013196;28;19969;-68
2023/05/17 05:19:10;;;;;;;;;;;;;;;;;;5002179;28;19929;-68
2023/05/17 05:21:37;;;;;;;;;;;;;;;;;;5012907;28;20392;-68
2023/05/17 05:24:04;;;;;;;;;;;;;;;;;;5003477;28;19925;-68
2023/05/17 05:26:31;;;;;;;;;;;;;;;;;;5013954;28;19933;-68
2023/05/17 05:28:58;;;;;;;;;;;;;;;;;;5011770;28;20012;-68
2023/05/17 05:31:25;;;;;;;;;;;;;;;;;;5004333;28;19995;-68
2023/05/17 05:33:52;;;;;;;;;;;;;;;;;;5013221;28;19929;-68
2023/05/17 05:36:19;;;;;;;;;;;;;;;;;;5012608;28;19972;-68
2023/05/17 05:38:46;;;;;;;;;;;;;;;;;;5007066;28;19929;-68
2023/05/17 05:41:13;;;;;;;;;;;;;;;;;;5010569;28;19925;-68
2023/05/17 05:43:40;;;;;;;;;;;;;;;;;;5012684;28;20327;-69
2023/05/17 05:46:07;;;;;;;;;;;;;;;;;;5012577;28;19926;-68
2023/05/17 05:48:38;;;;;;;;;;;;;;;;;;5010922;28;19926;-69
2023/05/17 05:51:05;;;;;;;;;;;;;;;;;;5012037;28;19925;-68
2023/05/17 05:53:32;;;;;;;;;;;;;;;;;;5010999;28;20339;-69
2023/05/17 05:55:59;;;;;;;;;;;;;;;;;;5003264;28;19934;-68
2023/05/17 05:58:26;;;;;;;;;;;;;;;;;;5010708;28;19925;-68
2023/05/17 06:00:53;;;;;;;;;;;;;;;;;;5011800;28;19984;-69
2023/05/17 06:03:20;;;;;;;;;;;;;;;;;;5011362;28;19980;-69
2023/05/17 06:05:47;;;;;;;;;;;;;;;;;;5008586;28;20004;-69
2023/05/17 06:08:14;;;;;;;;;;;;;;;;;;5009760;28;19926;-69
2023/05/17 06:10:41;;;;;;;;;;;;;;;;;;5009145;28;20052;-69
2023/05/17 06:13:08;;;;;;;;;;;;;;;;;;5011169;28;19969;-68
2023/05/17 06:15:35;;;;;;;;;;;;;;;;;;5000129;28;19934;-68
2023/05/17 06:18:02;;;;;;;;;;;;;;;;;;5007551;28;19953;-67
2023/05/17 06:20:29;;;;;;;;;;;;;;;;;;5006864;28;19952;-68
2023/05/17 06:22:56;;;;;;;;;;;;;;;;;;5009102;28;19925;-69
2023/05/17 06:25:23;;;;;;;;;;;;;;;;;;5005199;28;19926;-68
2023/05/17 06:27:50;;;;;;;;;;;;;;;;;;4997644;28;19926;-68
2023/05/17 06:30:17;;;;;;;;;;;;;;;;;;5010655;28;20004;-68
2023/05/17 06:32:44;;;;;;;;;;;;;;;;;;5010188;28;20392;-70
2023/05/17 06:35:11;;;;;;;;;;;;;;;;;;5007531;28;19930;-68
2023/05/17 06:37:38;;;;;;;;;;;;;;;;;;5010679;28;20463;-68
2023/05/17 06:40:06;;;;;;;;;;;;;;;;;;5010010;28;19933;-68
2023/05/17 06:42:33;;;;;;;;;;;;;;;;;;5006591;28;19933;-68
2023/05/17 06:45:00;;;;;;;;;;;;;;;;;;4998741;28;19976;-69
2023/05/17 06:47:27;;;;;;;;;;;;;;;;;;5003766;28;19929;-69
2023/05/17 06:49:54;;;;;;;;;;;;;;;;;;5006005;28;20024;-68
2023/05/17 06:52:21;;;;;;;;;;;;;;;;;;5000672;28;20331;-69
2023/05/17 06:54:48;;;;;;;;;;;;;;;;;;5010749;28;19957;-69
2023/05/17 06:57:15;;;;;;;;;;;;;;;;;;5010436;28;19933;-69
2023/05/17 06:59:42;;;;;;;;;;;;;;;;;;5011619;28;19925;-69
2023/05/17 07:02:09;;;;;;;;;;;;;;;;;;5002420;28;19930;-69
2023/05/17 07:04:36;;;;;;;;;;;;;;;;;;5012485;28;20376;-69
2023/05/17 07:07:03;;;;;;;;;;;;;;;;;;5017894;28;19932;-69
2023/05/17 07:09:30;;;;;;;;;;;;;;;;;;5006446;28;19926;-68
2023/05/17 07:11:57;;;;;;;;;;;;;;;;;;4999630;28;19925;-68
2023/05/17 07:14:24;;;;;;;;;;;;;;;;;;5007405;28;19930;-68
2023/05/17 07:16:51;;;;;;;;;;;;;;;;;;5010445;28;20357;-68
2023/05/17 07:19:18;;;;;;;;;;;;;;;;;;5009638;28;19926;-69
2023/05/17 07:21:45;;;;;;;;;;;;;;;;;;5008648;28;19980;-69
2023/05/17 07:24:12;;;;;;;;;;;;;;;;;;5006742;28;19979;-71
2023/05/17 07:26:39;;;;;;;;;;;;;;;;;;5007707;28;19972;-69
2023/05/17 07:29:06;;;;;;;;;;;;;;;;;;5002571;28;19999;-68
2023/05/17 07:31:33;;;;;;;;;;;;;;;;;;5008371;28;19980;-69
2023/05/17 07:34:00;;;;;;;;;;;;;;;;;;5003203;28;19995;-68
2023/05/17 07:36:29;;;;;;;;;;;;;;;;;;5008490;28;19979;-70
2023/05/17 07:38:56;;;;;;;;;;;;;;;;;;5008033;28;19933;-68
2023/05/17 07:41:23;;;;;;;;;;;;;;;;;;5000852;28;19949;-68
2023/05/17 07:43:50;;;;;;;;;;;;;;;;;;5008196;28;19941;-68
2023/05/17 07:46:17;;;;;;;;;;;;;;;;;;5007987;28;19984;-69
2023/05/17 07:48:44;;;;;;;;;;;;;;;;;;5011903;28;19937;-67
2023/05/17 07:51:11;;;;;;;;;;;;;;;;;;5013872;28;19933;-70
2023/05/17 07:53:38;;;;;;;;;;;;;;;;;;5011400;28;20364;-71
2023/05/17 07:56:05;;;;;;;;;;;;;;;;;;5010137;28;19993;-70
2023/05/17 07:58:32;;;;;;;;;;;;;;;;;;5009010;28;19934;-71
2023/05/17 08:00:59;;;;;;;;;;;;;;;;;;5012467;28;19925;-71
2023/05/17 08:03:27;;;;;;;;;;;;;;;;;;5012008;28;19972;-71
2023/05/17 08:05:54;;;;;;;;;;;;;;;;;;5011092;28;20020;-71
2023/05/17 08:08:21;;;;;;;;;;;;;;;;;;5010749;28;19995;-69
2023/05/17 08:10:48;;;;;;;;;;;;;;;;;;5004184;28;19930;-69
2023/05/17 08:13:15;;;;;;;;;;;;;;;;;;5010926;28;19933;-69
2023/05/17 08:15:42;;;;;;;;;;;;;;;;;;5012857;28;20389;-71
2023/05/17 08:18:09;;;;;;;;;;;;;;;;;;5004833;28;19929;-72
2023/05/17 08:20:36;;;;;;;;;;;;;;;;;;5007158;28;19976;-69
2023/05/17 08:23:03;;;;;;;;;;;;;;;;;;5007544;28;20387;-70
2023/05/17 08:25:30;;;;;;;;;;;;;;;;;;5006540;28;19929;-71
2023/05/17 08:27:57;;;;;;;;;;;;;;;;;;5008249;28;19934;-68
2023/05/17 08:30:24;;;;;;;;;;;;;;;;;;5004839;28;19942;-68
2023/05/17 08:32:51;;;;;;;;;;;;;;;;;;5005987;28;19926;-68
2023/05/17 08:35:19;;;;;;;;;;;;;;;;;;5005285;28;20400;-67
2023/05/17 08:37:46;;;;;;;;;;;;;;;;;;5004997;28;19925;-68
2023/05/17 08:40:13;;;;;;;;;;;;;;;;;;5000752;28;19926;-68
2023/05/17 08:42:40;;;;;;;;;;;;;;;;;;5005737;28;19925;-69
2023/05/17 08:45:09;;;;;;;;;;;;;;;;;;5006569;28;20456;-67
2023/05/17 08:47:36;;;;;;;;;;;;;;;;;;5012064;28;19971;-67
2023/05/17 08:50:04;;;;;;;;;;;;;;;;;;5010667;28;19926;-67
2023/05/17 08:52:32;;;;;;;;;;;;;;;;;;5011158;28;19965;-68
2023/05/17 08:54:59;;;;;;;;;;;;;;;;;;5013193;28;19932;-68
2023/05/17 08:57:26;;;;;;;;;;;;;;;;;;5008149;28;19926;-69
2023/05/17 08:59:54;;;;;;;;;;;;;;;;;;5005409;28;20023;-68
2023/05/17 09:02:21;;;;;;;;;;;;;;;;;;5007111;28;20040;-70
2023/05/17 09:04:48;;;;;;;;;;;;;;;;;;5007164;28;20652;-68
2023/05/17 09:07:15;;;;;;;;;;;;;;;;;;5009563;28;19926;-68
2023/05/17 09:09:42;;;;;;;;;;;;;;;;;;5006216;28;19988;-68
2023/05/17 09:12:09;;;;;;;;;;;;;;;;;;5007946;28;19934;-68
2023/05/17 09:14:36;;;;;;;;;;;;;;;;;;5006967;28;19929;-68
2023/05/17 09:17:03;;;;;;;;;;;;;;;;;;5006479;28;20666;-68
2023/05/17 09:19:30;;;;;;;;;;;;;;;;;;5006338;28;19926;-68
2023/05/17 09:21:57;;;;;;;;;;;;;;;;;;5001276;28;19929;-68
2023/05/17 09:24:24;;;;;;;;;;;;;;;;;;5011410;28;19926;-68
2023/05/17 09:26:51;;;;;;;;;;;;;;;;;;5003727;28;19926;-69
2023/05/17 09:29:18;;;;;;;;;;;;;;;;;;5009955;28;19979;-69
2023/05/17 09:31:45;;;;;;;;;;;;;;;;;;5007239;28;20371;-69
2023/05/17 09:34:12;;;;;;;;;;;;;;;;;;5009190;28;19972;-68
2023/05/17 09:36:40;;;;;;;;;;;;;;;;;;5009784;28;19930;-67
2023/05/17 09:39:10;;;;;;;;;;;;;;;;;;5008484;28;19925;-69
2023/05/17 09:41:37;;;;;;;;;;;;;;;;;;5001432;28;19936;-68
2023/05/17 09:44:04;;;;;;;;;;;;;;;;;;5008143;28;19925;-69
2023/05/17 09:46:32;;;;;;;;;;;;;;;;;;5008573;28;20018;-69
2023/05/17 09:48:59;;;;;;;;;;;;;;;;;;5010557;28;19952;-69
2023/05/17 09:51:26;;;;;;;;;;;;;;;;;;5005957;28;19930;-68
2023/05/17 09:53:53;;;;;;;;;;;;;;;;;;5009234;28;20400;-68
2023/05/17 09:56:20;;;;;;;;;;;;;;;;;;5008560;28;19936;-70
2023/05/17 09:58:47;;;;;;;;;;;;;;;;;;5007330;28;19925;-70
2023/05/17 10:01:14;;;;;;;;;;;;;;;;;;5003583;28;19933;-68
2023/05/17 10:03:41;;;;;;;;;;;;;;;;;;5002189;28;19933;-69
2023/05/17 10:06:08;;;;;;;;;;;;;;;;;;5003581;28;19925;-69
2023/05/17 10:08:35;;;;;;;;;;;;;;;;;;5009826;28;19930;-70
2023/05/17 10:11:02;;;;;;;;;;;;;;;;;;4994465;28;20051;-69
2023/05/17 10:13:30;;;;;;;;;;;;;;;;;;5006498;28;19933;-69
2023/05/17 10:15:57;;;;;;;;;;;;;;;;;;5004007;28;19945;-69
2023/05/17 10:18:24;;;;;;;;;;;;;;;;;;5003176;28;19941;-69
2023/05/17 10:20:51;;;;;;;;;;;;;;;;;;5005240;28;19937;-69
2023/05/17 10:23:19;;;;;;;;;;;;;;;;;;5001494;28;19973;-68
2023/05/17 10:25:46;;;;;;;;;;;;;;;;;;5005230;28;19933;-69
2023/05/17 10:28:13;;;;;;;;;;;;;;;;;;5001639;28;19925;-69
2023/05/17 10:30:40;;;;;;;;;;;;;;;;;;5006916;28;19968;-69
2023/05/17 10:33:07;;;;;;;;;;;;;;;;;;5009881;28;19925;-69
2023/05/17 10:35:34;;;;;;;;;;;;;;;;;;5008553;28;19973;-70
2023/05/17 10:38:01;;;;;;;;;;;;;;;;;;5007061;28;19925;-68
2023/05/17 10:40:29;;;;;;;;;;;;;;;;;;5008860;28;19934;-69
2023/05/17 10:42:56;;;;;;;;;;;;;;;;;;5008802;28;19929;-69
2023/05/17 10:45:24;;;;;;;;;;;;;;;;;;5007923;28;19933;-69
2023/05/17 10:47:51;;;;;;;;;;;;;;;;;;5007860;28;19933;-68
2023/05/17 10:50:18;;;;;;;;;;;;;;;;;;5007830;28;19925;-69
2023/05/17 10:52:45;;;;;;;;;;;;;;;;;;5006821;28;19933;-69
2023/05/17 10:55:12;;;;;;;;;;;;;;;;;;5001482;28;20031;-70
2023/05/17 10:57:40;;;;;;;;;;;;;;;;;;5007477;28;19939;-69
2023/05/17 11:00:11;;;;;;;;;;;;;;;;;;5007576;28;19926;-71
2023/05/17 11:02:42;;;;;;;;;;;;;;;;;;5007919;28;19932;-70
2023/05/17 11:05:13;;;;;;;;;;;;;;;;;;5006417;28;20024;-70
2023/05/17 11:07:40;;;;;;;;;;;;;;;;;;5002850;28;19973;-70
2023/05/17 11:10:08;;;;;;;;;;;;;;;;;;5005772;28;19932;-69
2023/05/17 11:12:36;;;;;;;;;;;;;;;;;;5004262;28;20227;-72
2023/05/17 11:15:03;;;;;;;;;;;;;;;;;;5003829;28;19964;-69
2023/05/17 11:17:30;;;;;;;;;;;;;;;;;;5011172;28;19932;-71
2023/05/17 11:19:58;;;;;;;;;;;;;;;;;;5007055;28;19925;-72
2023/05/17 11:22:26;;;;;;;;;;;;;;;;;;5009698;28;20024;-70
2023/05/17 11:24:53;;;;;;;;;;;;;;;;;;5011668;28;19933;-72
2023/05/17 11:27:26;;;;;;;;;;;;;;;;;;4998478;28;19930;-71
2023/05/17 11:29:53;;;;;;;;;;;;;;;;;;5009530;28;19961;-71
2023/05/17 11:32:27;;;;;;;;;;;;;;;;;;5012406;28;19925;-71
2023/05/17 11:34:57;;;;;;;;;;;;;;;;;;5012474;28;20454;-69
2023/05/17 11:37:26;;;;;;;;;;;;;;;;;;5013713;28;19949;-70
2023/05/17 11:39:56;;;;;;;;;;;;;;;;;;5011317;28;19934;-70
2023/05/17 11:42:26;;;;;;;;;;;;;;;;;;5009720;28;19926;-71
2023/05/17 11:44:53;;;;;;;;;;;;;;;;;;4995361;28;21060;-70
2023/05/17 11:47:21;;;;;;;;;;;;;;;;;;5012815;28;20404;-72
2023/05/17 11:49:50;;;;;;;;;;;;;;;;;;5014229;28;19932;-74
2023/05/17 11:52:17;;;;;;;;;;;;;;;;;;5014206;28;19933;-70
2023/05/17 11:54:44;;;;;;;;;;;;;;;;;;5010660;28;19967;-69
2023/05/17 11:57:15;;;;;;;;;;;;;;;;;;5011397;28;20011;-69
2023/05/17 11:59:42;;;;;;;;;;;;;;;;;;5008242;28;19930;-69
2023/05/17 12:02:09;;;;;;;;;;;;;;;;;;5012668;28;20443;-68
2023/05/17 12:04:37;;;;;;;;;;;;;;;;;;5013624;28;19925;-69
2023/05/17 12:07:04;;;;;;;;;;;;;;;;;;5012994;28;19925;-69
2023/05/17 12:09:31;;;;;;;;;;;;;;;;;;5008854;28;19935;-68
2023/05/17 12:11:58;;;;;;;;;;;;;;;;;;5008436;28;20376;-68
2023/05/17 12:14:26;;;;;;;;;;;;;;;;;;5011990;28;19930;-69
2023/05/17 12:16:55;;;;;;;;;;;;;;;;;;5010820;28;19929;-69
2023/05/17 12:19:22;;;;;;;;;;;;;;;;;;5009358;28;19972;-69
2023/05/17 12:21:49;;;;;;;;;;;;;;;;;;5012898;28;19933;-68
2023/05/17 12:24:16;;;;;;;;;;;;;;;;;;5012376;28;19979;-71
2023/05/17 12:26:43;;;;;;;;;;;;;;;;;;5014232;28;19925;-69
2023/05/17 12:29:10;;;;;;;;;;;;;;;;;;5011749;28;19929;-71
2023/05/17 12:31:37;;;;;;;;;;;;;;;;;;5014110;28;19983;-68
2023/05/17 12:34:04;;;;;;;;;;;;;;;;;;5011481;28;19926;-69
2023/05/17 12:36:32;;;;;;;;;;;;;;;;;;5010061;28;19990;-69
2023/05/17 12:38:59;;;;;;;;;;;;;;;;;;5010814;28;19932;-69
2023/05/17 12:41:26;;;;;;;;;;;;;;;;;;5009398;28;19930;-65
2023/05/17 12:43:53;;;;;;;;;;;;;;;;;;5011019;28;20270;-68
2023/05/17 12:46:20;;;;;;;;;;;;;;;;;;5012335;28;20026;-69
2023/05/17 12:48:47;;;;;;;;;;;;;;;;;;5012231;28;20012;-69
2023/05/17 12:51:14;;;;;;;;;;;;;;;;;;5008523;28;20335;-69
2023/05/17 12:53:41;;;;;;;;;;;;;;;;;;5010271;28;19925;-70
2023/05/17 12:56:08;;;;;;;;;;;;;;;;;;5008612;28;20315;-69
2023/05/17 12:58:35;;;;;;;;;;;;;;;;;;5010713;28;19934;-69
2023/05/17 13:01:02;;;;;;;;;;;;;;;;;;5004700;28;20410;-68
2023/05/17 13:03:29;;;;;;;;;;;;;;;;;;5011110;28;19926;-68
2023/05/17 13:05:56;;;;;;;;;;;;;;;;;;5006873;28;19933;-68
2023/05/17 13:08:23;;;;;;;;;;;;;;;;;;5010875;28;19949;-68
2023/05/17 13:10:50;;;;;;;;;;;;;;;;;;5010840;28;19930;-68
2023/05/17 13:13:17;;;;;;;;;;;;;;;;;;5008007;28;19971;-69
2023/05/17 13:15:44;;;;;;;;;;;;;;;;;;5007643;28;20199;-69
2023/05/17 13:18:11;;;;;;;;;;;;;;;;;;5010036;28;19925;-68
2023/05/17 13:20:38;;;;;;;;;;;;;;;;;;5008056;28;19926;-69
2023/05/17 13:23:05;;;;;;;;;;;;;;;;;;5011976;28;20015;-69
2023/05/17 13:25:32;;;;;;;;;;;;;;;;;;5011246;28;19929;-70
2023/05/17 13:28:01;;;;;;;;;;;;;;;;;;5008834;28;20011;-69
2023/05/17 13:30:28;;;;;;;;;;;;;;;;;;5012168;28;19930;-69
2023/05/17 13:32:55;;;;;;;;;;;;;;;;;;5010496;28;19937;-69
2023/05/17 13:35:22;;;;;;;;;;;;;;;;;;5007142;28;19925;-69
2023/05/17 13:37:49;;;;;;;;;;;;;;;;;;5009714;28;20381;-68
2023/05/17 13:40:16;;;;;;;;;;;;;;;;;;5000008;28;20020;-68
2023/05/17 13:42:43;;;;;;;;;;;;;;;;;;5010203;28;19925;-74
2023/05/17 13:45:12;;;;;;;;;;;;;;;;;;5013677;28;19989;-70
2023/05/17 13:47:39;;;;;;;;;;;;;;;;;;5010135;28;19926;-70
2023/05/17 13:50:06;;;;;;;;;;;;;;;;;;5012583;28;20304;-70
2023/05/17 13:52:33;;;;;;;;;;;;;;;;;;5011569;28;19925;-67
2023/05/17 13:55:00;;;;;;;;;;;;;;;;;;5003131;28;19925;-70
2023/05/17 13:57:27;;;;;;;;;;;;;;;;;;5005705;28;20348;-70
2023/05/17 13:59:55;;;;;;;;;;;;;;;;;;5010861;28;19979;-70
2023/05/17 14:02:22;;;;;;;;;;;;;;;;;;5011548;28;19968;-70
2023/05/17 14:04:49;;;;;;;;;;;;;;;;;;5010404;28;19980;-70
2023/05/17 14:07:16;;;;;;;;;;;;;;;;;;5007831;28;19930;-70
2023/05/17 14:09:43;;;;;;;;;;;;;;;;;;5005479;28;20385;-70
2023/05/17 14:12:10;;;;;;;;;;;;;;;;;;5007717;28;19961;-70
2023/05/17 14:14:40;;;;;;;;;;;;;;;;;;5005246;28;20118;-70
2023/05/17 14:17:07;;;;;;;;;;;;;;;;;;5008415;28;19933;-70
2023/05/17 14:19:34;;;;;;;;;;;;;;;;;;5007212;28;20420;-70
2023/05/17 14:22:01;;;;;;;;;;;;;;;;;;5011587;28;19925;-70
2023/05/17 14:24:29;;;;;;;;;;;;;;;;;;5004490;28;20321;-70
2023/05/17 14:26:56;;;;;;;;;;;;;;;;;;5007126;28;19925;-70
2023/05/17 14:29:23;;;;;;;;;;;;;;;;;;5009125;28;19925;-70
2023/05/17 14:31:50;;;;;;;;;;;;;;;;;;5004657;28;19999;-71
2023/05/17 14:34:17;;;;;;;;;;;;;;;;;;5011400;28;19926;-71
2023/05/17 14:36:44;;;;;;;;;;;;;;;;;;5008692;28;20363;-69
2023/05/17 14:39:12;;;;;;;;;;;;;;;;;;5008854;28;19948;-70
2023/05/17 14:41:39;;;;;;;;;;;;;;;;;;5000406;28;19930;-69
2023/05/17 14:44:06;;;;;;;;;;;;;;;;;;5006538;28;19977;-70
2023/05/17 14:46:34;;;;;;;;;;;;;;;;;;5011302;28;19926;-70
2023/05/17 14:49:01;;;;;;;;;;;;;;;;;;5012286;28;19936;-70
2023/05/17 14:51:28;;;;;;;;;;;;;;;;;;5013019;28;19933;-71
2023/05/17 14:53:55;;;;;;;;;;;;;;;;;;5013390;28;19932;-69
2023/05/17 14:56:22;;;;;;;;;;;;;;;;;;5014798;28;19926;-69
2023/05/17 14:58:49;;;;;;;;;;;;;;;;;;5012432;28;20288;-69
2023/05/17 15:01:17;;;;;;;;;;;;;;;;;;5012209;28;19933;-70
2023/05/17 15:03:44;;;;;;;;;;;;;;;;;;5014531;28;19926;-70
2023/05/17 15:06:11;;;;;;;;;;;;;;;;;;5013902;28;20446;-70
2023/05/17 15:08:39;;;;;;;;;;;;;;;;;;5012395;28;19961;-70
2023/05/17 15:11:06;;;;;;;;;;;;;;;;;;5002606;28;19930;-70
2023/05/17 15:13:33;;;;;;;;;;;;;;;;;;5005552;28;19925;-70
2023/05/17 15:16:00;;;;;;;;;;;;;;;;;;5013666;28;20448;-70
2023/05/17 15:18:27;;;;;;;;;;;;;;;;;;5013275;28;19933;-70
2023/05/17 15:20:54;;;;;;;;;;;;;;;;;;5014283;28;20327;-70
2023/05/17 15:23:21;;;;;;;;;;;;;;;;;;5013567;28;19929;-70
2023/05/17 15:25:48;;;;;;;;;;;;;;;;;;5002983;28;19991;-70
2023/05/17 15:28:18;;;;;;;;;;;;;;;;;;5014141;28;20046;-70
2023/05/17 15:30:45;;;;;;;;;;;;;;;;;;5014600;28;20315;-70
2023/05/17 15:33:12;;;;;;;;;;;;;;;;;;5014218;28;19930;-70
2023/05/17 15:35:40;;;;;;;;;;;;;;;;;;5013643;28;20001;-68
2023/05/17 15:38:07;;;;;;;;;;;;;;;;;;4999071;28;19930;-67
2023/05/17 15:40:34;;;;;;;;;;;;;;;;;;5005973;28;19995;-68
2023/05/17 15:43:01;;;;;;;;;;;;;;;;;;5014113;28;20424;-69
2023/05/17 15:45:28;;;;;;;;;;;;;;;;;;5011086;28;21227;-68
2023/05/17 15:47:55;;;;;;;;;;;;;;;;;;5011446;28;19934;-69
2023/05/17 15:50:22;;;;;;;;;;;;;;;;;;5014546;28;19988;-70
2023/05/17 15:52:49;;;;;;;;;;;;;;;;;;5012361;28;19944;-69
2023/05/17 15:55:16;;;;;;;;;;;;;;;;;;5007867;28;19926;-67
2023/05/17 15:57:43;;;;;;;;;;;;;;;;;;5007950;28;19988;-67
2023/05/17 16:00:11;;;;;;;;;;;;;;;;;;5012524;28;19953;-67
2023/05/17 16:02:38;;;;;;;;;;;;;;;;;;5012115;28;19925;-67
2023/05/17 16:05:05;;;;;;;;;;;;;;;;;;5018203;28;20032;-68
2023/05/17 16:07:32;;;;;;;;;;;;;;;;;;5015689;28;20003;-69
2023/05/17 16:09:59;;;;;;;;;;;;;;;;;;5017922;28;19925;-67
2023/05/17 16:12:26;;;;;;;;;;;;;;;;;;5010172;28;19925;-68
2023/05/17 16:14:53;;;;;;;;;;;;;;;;;;5008479;28;20377;-68
2023/05/17 16:17:20;;;;;;;;;;;;;;;;;;5003574;28;19960;-66
2023/05/17 16:19:47;;;;;;;;;;;;;;;;;;5009355;28;20285;-69
2023/05/17 16:22:14;;;;;;;;;;;;;;;;;;5008028;28;19926;-69
2023/05/17 16:24:42;;;;;;;;;;;;;;;;;;5013500;28;19932;-70
2023/05/17 16:27:09;;;;;;;;;;;;;;;;;;5002815;28;19941;-69
2023/05/17 16:29:38;;;;;;;;;;;;;;;;;;5016460;28;20022;-68
2023/05/17 16:32:05;;;;;;;;;;;;;;;;;;5020165;28;19929;-68
2023/05/17 16:34:32;;;;;;;;;;;;;;;;;;5017630;28;19988;-68
2023/05/17 16:36:59;;;;;;;;;;;;;;;;;;5013386;28;19933;-68
2023/05/17 16:39:27;;;;;;;;;;;;;;;;;;5008944;28;19956;-68
2023/05/17 16:41:54;;;;;;;;;;;;;;;;;;5010819;28;19929;-67
2023/05/17 16:44:21;;;;;;;;;;;;;;;;;;5007980;28;20368;-66